METAR Data

Data at: 0731 UTC 28 Sep 2022

METAR for:KCON (Concord Muni, NH, US)
Text:KCON 280651Z AUTO 11008KT 10SM SCT095 10/09 A2990 RMK AO2 SLP127 T01000089
Temperature: 10.0°C ( 50°F)
Dewpoint: 8.9°C ( 48°F) [RH = 93%]
Pressure (altimeter):29.90 inches Hg (1012.6 mb) [Sea level pressure: 1012.7 mb]
Winds:from the ESE (110 degrees) at 9 MPH (8 knots; 4.1 m/s)
Visibility:10 or more sm (16+ km)
Ceiling:at least 12,000 feet AGL
Clouds: scattered clouds at 9500 feet AGL
QC Flag:automated observation with no human augmentation